sensor_id;sensor_type;location;lat;lon;timestamp;temperature;humidity
22288;DHT22;11312;51.464;6.968;2024-02-15T00:00:28;12.10;99.90
22288;DHT22;11312;51.464;6.968;2024-02-15T00:02:53;12.10;99.90
22288;DHT22;11312;51.464;6.968;2024-02-15T00:05:19;12.00;99.90
22288;DHT22;11312;51.464;6.968;2024-02-15T00:07:45;12.10;99.90
22288;DHT22;11312;51.464;6.968;2024-02-15T00:10:13;12.10;99.90
22288;DHT22;11312;51.464;6.968;2024-02-15T00:12:40;12.00;99.90
22288;DHT22;11312;51.464;6.968;2024-02-15T00:15:05;12.00;99.90
22288;DHT22;11312;51.464;6.968;2024-02-15T00:17:31;12.00;99.90
22288;DHT22;11312;51.464;6.968;2024-02-15T00:19:58;12.00;99.90
22288;DHT22;11312;51.464;6.968;2024-02-15T00:22:24;12.00;99.90
22288;DHT22;11312;51.464;6.968;2024-02-15T00:24:52;12.00;99.90
22288;DHT22;11312;51.464;6.968;2024-02-15T00:27:18;11.90;99.90
22288;DHT22;11312;51.464;6.968;2024-02-15T00:29:44;12.00;99.90
22288;DHT22;11312;51.464;6.968;2024-02-15T00:32:11;11.90;99.90
22288;DHT22;11312;51.464;6.968;2024-02-15T00:34:37;12.00;99.90
22288;DHT22;11312;51.464;6.968;2024-02-15T00:37:06;11.90;99.90
22288;DHT22;11312;51.464;6.968;2024-02-15T00:39:32;12.00;99.90
22288;DHT22;11312;51.464;6.968;2024-02-15T00:41:59;12.00;99.90
22288;DHT22;11312;51.464;6.968;2024-02-15T00:44:26;12.00;99.90
22288;DHT22;11312;51.464;6.968;2024-02-15T00:46:52;12.00;99.90
22288;DHT22;11312;51.464;6.968;2024-02-15T00:49:18;12.00;99.90
22288;DHT22;11312;51.464;6.968;2024-02-15T00:51:46;12.10;99.90
22288;DHT22;11312;51.464;6.968;2024-02-15T00:54:12;12.10;99.90
22288;DHT22;11312;51.464;6.968;2024-02-15T00:56:38;12.00;99.90
22288;DHT22;11312;51.464;6.968;2024-02-15T00:59:03;12.10;99.90
22288;DHT22;11312;51.464;6.968;2024-02-15T01:01:31;12.10;99.90
22288;DHT22;11312;51.464;6.968;2024-02-15T01:03:56;12.10;99.90
22288;DHT22;11312;51.464;6.968;2024-02-15T01:06:22;12.10;99.90
22288;DHT22;11312;51.464;6.968;2024-02-15T01:08:48;12.10;99.90
22288;DHT22;11312;51.464;6.968;2024-02-15T01:11:14;12.10;99.90
22288;DHT22;11312;51.464;6.968;2024-02-15T01:13:41;12.10;99.90
22288;DHT22;11312;51.464;6.968;2024-02-15T01:16:07;12.10;99.90
22288;DHT22;11312;51.464;6.968;2024-02-15T01:18:33;12.10;99.90
22288;DHT22;11312;51.464;6.968;2024-02-15T01:21:00;12.10;99.90
22288;DHT22;11312;51.464;6.968;2024-02-15T01:23:26;12.10;99.90
22288;DHT22;11312;51.464;6.968;2024-02-15T01:25:52;12.10;99.90
22288;DHT22;11312;51.464;6.968;2024-02-15T01:28:18;12.10;99.90
22288;DHT22;11312;51.464;6.968;2024-02-15T01:30:44;12.20;99.90
22288;DHT22;11312;51.464;6.968;2024-02-15T01:33:11;12.20;99.90
22288;DHT22;11312;51.464;6.968;2024-02-15T01:35:37;12.20;99.90
22288;DHT22;11312;51.464;6.968;2024-02-15T01:38:03;12.20;99.90
22288;DHT22;11312;51.464;6.968;2024-02-15T01:40:29;12.30;99.90
22288;DHT22;11312;51.464;6.968;2024-02-15T01:42:55;12.20;99.90
22288;DHT22;11312;51.464;6.968;2024-02-15T01:45:21;12.20;99.90
22288;DHT22;11312;51.464;6.968;2024-02-15T01:47:49;12.20;99.90
22288;DHT22;11312;51.464;6.968;2024-02-15T01:50:16;12.10;99.90
22288;DHT22;11312;51.464;6.968;2024-02-15T01:52:43;12.50;99.90
22288;DHT22;11312;51.464;6.968;2024-02-15T01:55:14;12.10;99.90
22288;DHT22;11312;51.464;6.968;2024-02-15T01:57:44;12.10;99.90
22288;DHT22;11312;51.464;6.968;2024-02-15T02:00:10;12.10;99.90
22288;DHT22;11312;51.464;6.968;2024-02-15T02:02:39;12.10;99.90
22288;DHT22;11312;51.464;6.968;2024-02-15T02:05:07;12.10;99.90
22288;DHT22;11312;51.464;6.968;2024-02-15T02:07:33;12.10;99.90
22288;DHT22;11312;51.464;6.968;2024-02-15T02:09:59;12.10;99.90
22288;DHT22;11312;51.464;6.968;2024-02-15T02:12:25;12.10;99.90
22288;DHT22;11312;51.464;6.968;2024-02-15T02:14:53;12.10;99.90
22288;DHT22;11312;51.464;6.968;2024-02-15T02:17:20;12.10;99.90
22288;DHT22;11312;51.464;6.968;2024-02-15T02:19:46;12.20;99.90
22288;DHT22;11312;51.464;6.968;2024-02-15T02:22:13;12.20;99.90
22288;DHT22;11312;51.464;6.968;2024-02-15T02:27:29;12.10;99.90
22288;DHT22;11312;51.464;6.968;2024-02-15T02:29:56;12.20;99.90
22288;DHT22;11312;51.464;6.968;2024-02-15T02:32:24;12.10;99.90
22288;DHT22;11312;51.464;6.968;2024-02-15T02:34:49;12.10;99.90
22288;DHT22;11312;51.464;6.968;2024-02-15T02:37:15;12.10;99.90
22288;DHT22;11312;51.464;6.968;2024-02-15T02:39:42;12.20;99.90
22288;DHT22;11312;51.464;6.968;2024-02-15T02:42:08;12.10;99.90
22288;DHT22;11312;51.464;6.968;2024-02-15T02:44:34;12.20;99.90
22288;DHT22;11312;51.464;6.968;2024-02-15T02:46:59;12.30;99.90
22288;DHT22;11312;51.464;6.968;2024-02-15T02:49:25;12.10;99.90
22288;DHT22;11312;51.464;6.968;2024-02-15T02:51:51;12.10;99.90
22288;DHT22;11312;51.464;6.968;2024-02-15T02:54:16;12.20;99.90
22288;DHT22;11312;51.464;6.968;2024-02-15T02:56:43;12.20;99.90
22288;DHT22;11312;51.464;6.968;2024-02-15T02:59:11;12.20;99.90
22288;DHT22;11312;51.464;6.968;2024-02-15T03:01:38;12.10;99.90
22288;DHT22;11312;51.464;6.968;2024-02-15T03:04:05;12.20;99.90
22288;DHT22;11312;51.464;6.968;2024-02-15T03:06:31;12.20;99.90
22288;DHT22;11312;51.464;6.968;2024-02-15T03:08:57;12.20;99.90
22288;DHT22;11312;51.464;6.968;2024-02-15T03:11:23;12.20;99.90
22288;DHT22;11312;51.464;6.968;2024-02-15T03:13:49;12.20;99.90
22288;DHT22;11312;51.464;6.968;2024-02-15T03:16:14;12.20;99.90
22288;DHT22;11312;51.464;6.968;2024-02-15T03:18:42;12.10;99.90
22288;DHT22;11312;51.464;6.968;2024-02-15T03:21:08;12.20;99.90
22288;DHT22;11312;51.464;6.968;2024-02-15T03:23:37;12.30;99.90
22288;DHT22;11312;51.464;6.968;2024-02-15T03:26:03;12.20;99.90
22288;DHT22;11312;51.464;6.968;2024-02-15T03:28:32;12.20;99.90
22288;DHT22;11312;51.464;6.968;2024-02-15T03:30:59;12.20;99.90
22288;DHT22;11312;51.464;6.968;2024-02-15T03:33:26;12.20;99.90
22288;DHT22;11312;51.464;6.968;2024-02-15T03:35:54;12.20;99.90
22288;DHT22;11312;51.464;6.968;2024-02-15T03:38:27;12.20;99.90
22288;DHT22;11312;51.464;6.968;2024-02-15T03:40:55;12.30;99.90
22288;DHT22;11312;51.464;6.968;2024-02-15T03:43:21;12.20;99.90
22288;DHT22;11312;51.464;6.968;2024-02-15T03:45:49;12.30;99.90
22288;DHT22;11312;51.464;6.968;2024-02-15T03:48:15;12.30;99.90
22288;DHT22;11312;51.464;6.968;2024-02-15T03:50:41;12.30;99.90
22288;DHT22;11312;51.464;6.968;2024-02-15T03:53:09;12.30;99.90
22288;DHT22;11312;51.464;6.968;2024-02-15T03:55:36;12.20;99.90
22288;DHT22;11312;51.464;6.968;2024-02-15T03:58:02;12.30;99.90
22288;DHT22;11312;51.464;6.968;2024-02-15T04:00:27;12.30;99.90
22288;DHT22;11312;51.464;6.968;2024-02-15T04:02:53;12.40;99.90
22288;DHT22;11312;51.464;6.968;2024-02-15T04:05:18;12.40;99.90
22288;DHT22;11312;51.464;6.968;2024-02-15T04:07:47;12.40;99.90
22288;DHT22;11312;51.464;6.968;2024-02-15T04:10:13;12.30;99.90
22288;DHT22;11312;51.464;6.968;2024-02-15T04:12:39;12.40;99.90
22288;DHT22;11312;51.464;6.968;2024-02-15T04:15:07;12.40;99.90
22288;DHT22;11312;51.464;6.968;2024-02-15T04:17:37;12.40;99.90
22288;DHT22;11312;51.464;6.968;2024-02-15T04:20:04;12.40;99.90
22288;DHT22;11312;51.464;6.968;2024-02-15T04:22:32;12.50;99.90
22288;DHT22;11312;51.464;6.968;2024-02-15T04:25:03;12.50;99.90
22288;DHT22;11312;51.464;6.968;2024-02-15T04:27:28;12.50;99.90
22288;DHT22;11312;51.464;6.968;2024-02-15T04:29:54;12.60;99.90
22288;DHT22;11312;51.464;6.968;2024-02-15T04:32:21;12.50;99.90
22288;DHT22;11312;51.464;6.968;2024-02-15T04:34:46;12.40;99.90
22288;DHT22;11312;51.464;6.968;2024-02-15T04:37:12;12.40;99.90
22288;DHT22;11312;51.464;6.968;2024-02-15T04:39:38;12.40;99.90
22288;DHT22;11312;51.464;6.968;2024-02-15T04:42:04;12.30;99.90
22288;DHT22;11312;51.464;6.968;2024-02-15T04:44:33;12.40;99.90
22288;DHT22;11312;51.464;6.968;2024-02-15T04:47:01;12.40;99.90
22288;DHT22;11312;51.464;6.968;2024-02-15T04:49:29;12.40;99.90
22288;DHT22;11312;51.464;6.968;2024-02-15T04:51:55;12.40;99.90
22288;DHT22;11312;51.464;6.968;2024-02-15T04:54:22;12.30;99.90
22288;DHT22;11312;51.464;6.968;2024-02-15T04:56:48;12.40;99.90
22288;DHT22;11312;51.464;6.968;2024-02-15T04:59:16;12.30;99.90
22288;DHT22;11312;51.464;6.968;2024-02-15T05:01:42;12.40;99.90
22288;DHT22;11312;51.464;6.968;2024-02-15T05:04:11;12.20;99.90
22288;DHT22;11312;51.464;6.968;2024-02-15T05:06:38;12.20;99.90
22288;DHT22;11312;51.464;6.968;2024-02-15T05:09:04;12.30;99.90
22288;DHT22;11312;51.464;6.968;2024-02-15T05:11:36;12.40;99.90
22288;DHT22;11312;51.464;6.968;2024-02-15T05:14:05;12.50;99.90
22288;DHT22;11312;51.464;6.968;2024-02-15T05:16:32;12.40;99.90
22288;DHT22;11312;51.464;6.968;2024-02-15T05:18:58;12.40;99.90
22288;DHT22;11312;51.464;6.968;2024-02-15T05:21:24;12.40;99.90
22288;DHT22;11312;51.464;6.968;2024-02-15T05:23:49;12.30;99.90
22288;DHT22;11312;51.464;6.968;2024-02-15T05:26:17;12.40;99.90
22288;DHT22;11312;51.464;6.968;2024-02-15T05:28:51;12.40;99.90
22288;DHT22;11312;51.464;6.968;2024-02-15T05:31:20;12.40;99.90
22288;DHT22;11312;51.464;6.968;2024-02-15T05:33:49;12.40;99.90
22288;DHT22;11312;51.464;6.968;2024-02-15T05:36:16;12.40;99.90
22288;DHT22;11312;51.464;6.968;2024-02-15T05:38:47;12.50;99.90
22288;DHT22;11312;51.464;6.968;2024-02-15T05:41:13;12.40;99.90
22288;DHT22;11312;51.464;6.968;2024-02-15T05:43:39;12.40;99.90
22288;DHT22;11312;51.464;6.968;2024-02-15T05:46:07;12.50;99.90
22288;DHT22;11312;51.464;6.968;2024-02-15T05:48:33;12.40;99.90
22288;DHT22;11312;51.464;6.968;2024-02-15T05:51:07;12.50;99.90
22288;DHT22;11312;51.464;6.968;2024-02-15T05:53:33;12.50;99.90
22288;DHT22;11312;51.464;6.968;2024-02-15T05:56:06;12.40;99.90
22288;DHT22;11312;51.464;6.968;2024-02-15T05:58:36;12.50;99.90
22288;DHT22;11312;51.464;6.968;2024-02-15T06:01:03;12.60;99.90
22288;DHT22;11312;51.464;6.968;2024-02-15T06:03:33;12.60;99.90
22288;DHT22;11312;51.464;6.968;2024-02-15T06:06:04;12.70;99.90
22288;DHT22;11312;51.464;6.968;2024-02-15T06:08:35;12.60;99.90
22288;DHT22;11312;51.464;6.968;2024-02-15T06:11:01;12.60;99.90
22288;DHT22;11312;51.464;6.968;2024-02-15T06:13:27;12.50;99.90
22288;DHT22;11312;51.464;6.968;2024-02-15T06:15:54;12.50;99.90
22288;DHT22;11312;51.464;6.968;2024-02-15T06:18:24;12.40;99.90
22288;DHT22;11312;51.464;6.968;2024-02-15T06:20:51;12.50;99.90
22288;DHT22;11312;51.464;6.968;2024-02-15T06:23:18;12.50;99.90
22288;DHT22;11312;51.464;6.968;2024-02-15T06:25:44;12.60;99.90
22288;DHT22;11312;51.464;6.968;2024-02-15T06:28:10;12.60;99.90
22288;DHT22;11312;51.464;6.968;2024-02-15T06:30:46;12.60;99.90
22288;DHT22;11312;51.464;6.968;2024-02-15T06:33:31;12.60;99.90
22288;DHT22;11312;51.464;6.968;2024-02-15T06:36:15;12.50;99.90
22288;DHT22;11312;51.464;6.968;2024-02-15T06:38:59;12.50;99.90
22288;DHT22;11312;51.464;6.968;2024-02-15T06:41:43;12.50;99.90
22288;DHT22;11312;51.464;6.968;2024-02-15T06:44:09;12.40;99.90
22288;DHT22;11312;51.464;6.968;2024-02-15T06:46:35;12.50;99.90
22288;DHT22;11312;51.464;6.968;2024-02-15T06:49:01;12.60;99.90
22288;DHT22;11312;51.464;6.968;2024-02-15T06:51:27;12.60;99.90
22288;DHT22;11312;51.464;6.968;2024-02-15T06:53:53;12.50;99.90
22288;DHT22;11312;51.464;6.968;2024-02-15T06:56:21;12.50;99.90
22288;DHT22;11312;51.464;6.968;2024-02-15T06:58:47;12.50;99.90
22288;DHT22;11312;51.464;6.968;2024-02-15T07:01:14;12.50;99.90
22288;DHT22;11312;51.464;6.968;2024-02-15T07:03:44;12.50;99.90
22288;DHT22;11312;51.464;6.968;2024-02-15T07:06:11;12.50;99.90
22288;DHT22;11312;51.464;6.968;2024-02-15T07:08:39;12.50;99.90
22288;DHT22;11312;51.464;6.968;2024-02-15T07:11:07;12.40;99.90
22288;DHT22;11312;51.464;6.968;2024-02-15T07:13:35;12.50;99.90
22288;DHT22;11312;51.464;6.968;2024-02-15T07:16:01;12.40;99.90
22288;DHT22;11312;51.464;6.968;2024-02-15T07:18:27;12.40;99.90
22288;DHT22;11312;51.464;6.968;2024-02-15T07:20:54;12.50;99.90
22288;DHT22;11312;51.464;6.968;2024-02-15T07:23:22;12.40;99.90
22288;DHT22;11312;51.464;6.968;2024-02-15T07:25:48;12.40;99.90
22288;DHT22;11312;51.464;6.968;2024-02-15T07:28:15;12.50;99.90
22288;DHT22;11312;51.464;6.968;2024-02-15T07:30:41;12.30;99.90
22288;DHT22;11312;51.464;6.968;2024-02-15T07:33:07;12.50;99.90
22288;DHT22;11312;51.464;6.968;2024-02-15T07:35:33;12.50;99.90
22288;DHT22;11312;51.464;6.968;2024-02-15T07:37:58;12.40;99.90
22288;DHT22;11312;51.464;6.968;2024-02-15T07:40:26;12.40;99.90
22288;DHT22;11312;51.464;6.968;2024-02-15T07:42:57;12.40;99.90
22288;DHT22;11312;51.464;6.968;2024-02-15T07:45:25;12.40;99.90
22288;DHT22;11312;51.464;6.968;2024-02-15T07:47:51;12.40;99.90
22288;DHT22;11312;51.464;6.968;2024-02-15T07:50:18;12.40;99.90
22288;DHT22;11312;51.464;6.968;2024-02-15T07:52:47;12.30;99.90
22288;DHT22;11312;51.464;6.968;2024-02-15T07:55:13;12.40;99.90
22288;DHT22;11312;51.464;6.968;2024-02-15T07:57:39;12.40;99.90
22288;DHT22;11312;51.464;6.968;2024-02-15T08:00:06;12.30;99.90
22288;DHT22;11312;51.464;6.968;2024-02-15T08:02:37;12.30;99.90
22288;DHT22;11312;51.464;6.968;2024-02-15T08:05:08;12.30;99.90
22288;DHT22;11312;51.464;6.968;2024-02-15T08:07:45;12.30;99.90
22288;DHT22;11312;51.464;6.968;2024-02-15T08:10:11;12.40;99.90
22288;DHT22;11312;51.464;6.968;2024-02-15T08:15:07;12.40;99.90
22288;DHT22;11312;51.464;6.968;2024-02-15T08:17:44;12.50;99.90
22288;DHT22;11312;51.464;6.968;2024-02-15T08:20:14;12.50;99.90
22288;DHT22;11312;51.464;6.968;2024-02-15T08:22:40;12.60;99.90
22288;DHT22;11312;51.464;6.968;2024-02-15T08:25:07;12.60;99.90
22288;DHT22;11312;51.464;6.968;2024-02-15T08:27:36;12.60;99.90
22288;DHT22;11312;51.464;6.968;2024-02-15T08:30:07;12.60;99.90
22288;DHT22;11312;51.464;6.968;2024-02-15T08:32:35;12.50;99.90
22288;DHT22;11312;51.464;6.968;2024-02-15T08:35:00;12.60;99.90
22288;DHT22;11312;51.464;6.968;2024-02-15T08:37:26;13.20;99.90
22288;DHT22;11312;51.464;6.968;2024-02-15T08:39:51;12.70;99.90
22288;DHT22;11312;51.464;6.968;2024-02-15T08:42:18;12.90;99.90
22288;DHT22;11312;51.464;6.968;2024-02-15T08:44:48;13.00;99.90
22288;DHT22;11312;51.464;6.968;2024-02-15T08:47:14;12.50;99.90
22288;DHT22;11312;51.464;6.968;2024-02-15T08:49:39;12.40;99.90
22288;DHT22;11312;51.464;6.968;2024-02-15T08:52:06;12.40;99.90
22288;DHT22;11312;51.464;6.968;2024-02-15T08:54:33;12.30;99.90
22288;DHT22;11312;51.464;6.968;2024-02-15T08:56:59;12.20;99.90
22288;DHT22;11312;51.464;6.968;2024-02-15T08:59:27;12.30;99.90
22288;DHT22;11312;51.464;6.968;2024-02-15T09:01:54;12.30;99.90
22288;DHT22;11312;51.464;6.968;2024-02-15T09:04:22;12.40;99.90
22288;DHT22;11312;51.464;6.968;2024-02-15T09:06:50;12.50;99.90
22288;DHT22;11312;51.464;6.968;2024-02-15T09:09:16;12.50;99.90
22288;DHT22;11312;51.464;6.968;2024-02-15T09:11:42;12.50;99.90
22288;DHT22;11312;51.464;6.968;2024-02-15T09:14:07;12.50;99.90
22288;DHT22;11312;51.464;6.968;2024-02-15T09:16:36;12.60;99.90
22288;DHT22;11312;51.464;6.968;2024-02-15T09:19:01;12.60;99.90
22288;DHT22;11312;51.464;6.968;2024-02-15T09:21:27;12.50;99.90
22288;DHT22;11312;51.464;6.968;2024-02-15T09:23:54;12.50;99.90
22288;DHT22;11312;51.464;6.968;2024-02-15T09:26:20;12.50;99.90
22288;DHT22;11312;51.464;6.968;2024-02-15T09:28:46;12.50;99.90
22288;DHT22;11312;51.464;6.968;2024-02-15T09:31:14;12.50;99.90
22288;DHT22;11312;51.464;6.968;2024-02-15T09:33:40;12.60;99.90
22288;DHT22;11312;51.464;6.968;2024-02-15T09:36:06;12.70;99.90
22288;DHT22;11312;51.464;6.968;2024-02-15T09:38:32;12.60;99.90
22288;DHT22;11312;51.464;6.968;2024-02-15T09:40:57;12.70;99.90
22288;DHT22;11312;51.464;6.968;2024-02-15T09:43:23;12.80;99.90
22288;DHT22;11312;51.464;6.968;2024-02-15T09:45:52;12.90;99.90
22288;DHT22;11312;51.464;6.968;2024-02-15T09:48:18;13.00;99.90
22288;DHT22;11312;51.464;6.968;2024-02-15T09:50:47;13.00;99.90
22288;DHT22;11312;51.464;6.968;2024-02-15T09:53:13;13.00;99.90
22288;DHT22;11312;51.464;6.968;2024-02-15T09:55:40;13.00;99.90
22288;DHT22;11312;51.464;6.968;2024-02-15T09:58:07;13.00;99.90
22288;DHT22;11312;51.464;6.968;2024-02-15T10:00:35;13.00;99.90
22288;DHT22;11312;51.464;6.968;2024-02-15T10:03:02;13.00;99.90
22288;DHT22;11312;51.464;6.968;2024-02-15T10:05:28;13.00;99.90
22288;DHT22;11312;51.464;6.968;2024-02-15T10:07:54;13.00;99.90
22288;DHT22;11312;51.464;6.968;2024-02-15T10:10:21;13.20;99.90
22288;DHT22;11312;51.464;6.968;2024-02-15T10:15:36;13.30;99.90
22288;DHT22;11312;51.464;6.968;2024-02-15T10:18:04;13.40;99.90
22288;DHT22;11312;51.464;6.968;2024-02-15T10:20:31;13.50;99.90
22288;DHT22;11312;51.464;6.968;2024-02-15T10:25:27;13.80;99.90
22288;DHT22;11312;51.464;6.968;2024-02-15T10:28:02;13.80;99.90
22288;DHT22;11312;51.464;6.968;2024-02-15T10:30:28;14.00;99.90
22288;DHT22;11312;51.464;6.968;2024-02-15T10:32:55;14.10;99.90
22288;DHT22;11312;51.464;6.968;2024-02-15T10:35:22;13.90;99.90
22288;DHT22;11312;51.464;6.968;2024-02-15T10:37:49;13.90;99.90
22288;DHT22;11312;51.464;6.968;2024-02-15T10:40:18;13.90;99.90
22288;DHT22;11312;51.464;6.968;2024-02-15T10:42:46;13.90;99.90
22288;DHT22;11312;51.464;6.968;2024-02-15T10:45:15;14.00;99.90
22288;DHT22;11312;51.464;6.968;2024-02-15T10:47:44;14.00;99.90
22288;DHT22;11312;51.464;6.968;2024-02-15T10:50:11;14.00;99.90
22288;DHT22;11312;51.464;6.968;2024-02-15T10:52:40;14.10;99.90
22288;DHT22;11312;51.464;6.968;2024-02-15T10:55:11;14.10;99.90
22288;DHT22;11312;51.464;6.968;2024-02-15T10:57:42;14.10;99.90
22288;DHT22;11312;51.464;6.968;2024-02-15T11:00:12;14.10;99.90
22288;DHT22;11312;51.464;6.968;2024-02-15T11:03:01;14.20;99.90
22288;DHT22;11312;51.464;6.968;2024-02-15T11:05:32;14.30;99.90
22288;DHT22;11312;51.464;6.968;2024-02-15T11:08:04;14.20;99.90
22288;DHT22;11312;51.464;6.968;2024-02-15T11:10:30;14.30;99.90
22288;DHT22;11312;51.464;6.968;2024-02-15T11:12:57;14.40;99.90
22288;DHT22;11312;51.464;6.968;2024-02-15T11:15:41;14.50;99.90
22288;DHT22;11312;51.464;6.968;2024-02-15T11:18:07;14.50;99.90
22288;DHT22;11312;51.464;6.968;2024-02-15T11:23:02;14.40;99.90
22288;DHT22;11312;51.464;6.968;2024-02-15T11:25:35;14.60;99.90
22288;DHT22;11312;51.464;6.968;2024-02-15T11:30:51;14.70;99.90
22288;DHT22;11312;51.464;6.968;2024-02-15T11:33:29;14.70;99.90
22288;DHT22;11312;51.464;6.968;2024-02-15T11:38:33;14.90;99.90
22288;DHT22;11312;51.464;6.968;2024-02-15T11:41:04;15.40;99.90
22288;DHT22;11312;51.464;6.968;2024-02-15T11:46:14;15.80;99.90
22288;DHT22;11312;51.464;6.968;2024-02-15T11:48:39;15.40;99.90
22288;DHT22;11312;51.464;6.968;2024-02-15T11:51:06;15.20;99.90
22288;DHT22;11312;51.464;6.968;2024-02-15T11:53:32;16.10;99.90
22288;DHT22;11312;51.464;6.968;2024-02-15T11:56:01;15.60;99.90
22288;DHT22;11312;51.464;6.968;2024-02-15T11:58:28;15.90;99.90
22288;DHT22;11312;51.464;6.968;2024-02-15T12:01:18;17.10;99.90
22288;DHT22;11312;51.464;6.968;2024-02-15T12:04:02;17.80;1.00
22288;DHT22;11312;51.464;6.968;2024-02-15T12:06:47;17.40;1.00
22288;DHT22;11312;51.464;6.968;2024-02-15T12:09:31;16.50;99.90
22288;DHT22;11312;51.464;6.968;2024-02-15T12:12:15;16.30;1.00
22288;DHT22;11312;51.464;6.968;2024-02-15T12:15:02;16.10;99.90
22288;DHT22;11312;51.464;6.968;2024-02-15T12:17:47;16.20;99.90
22288;DHT22;11312;51.464;6.968;2024-02-15T12:20:31;17.10;99.90
22288;DHT22;11312;51.464;6.968;2024-02-15T12:22:57;17.00;99.90
22288;DHT22;11312;51.464;6.968;2024-02-15T12:25:26;16.80;99.90
22288;DHT22;11312;51.464;6.968;2024-02-15T12:27:54;16.70;11.20
22288;DHT22;11312;51.464;6.968;2024-02-15T12:30:20;17.60;1.00
22288;DHT22;11312;51.464;6.968;2024-02-15T12:32:50;17.80;1.00
22288;DHT22;11312;51.464;6.968;2024-02-15T12:35:18;17.50;1.00
22288;DHT22;11312;51.464;6.968;2024-02-15T12:38:01;16.90;1.00
22288;DHT22;11312;51.464;6.968;2024-02-15T12:40:35;17.70;1.00
22288;DHT22;11312;51.464;6.968;2024-02-15T12:43:02;17.30;1.00
22288;DHT22;11312;51.464;6.968;2024-02-15T12:45:32;17.80;99.90
22288;DHT22;11312;51.464;6.968;2024-02-15T12:47:58;18.30;1.00
22288;DHT22;11312;51.464;6.968;2024-02-15T12:50:29;18.60;1.00
22288;DHT22;11312;51.464;6.968;2024-02-15T12:52:55;18.40;99.90
22288;DHT22;11312;51.464;6.968;2024-02-15T12:55:22;19.30;99.90
22288;DHT22;11312;51.464;6.968;2024-02-15T12:57:53;19.70;99.90
22288;DHT22;11312;51.464;6.968;2024-02-15T13:00:25;19.30;1.00
22288;DHT22;11312;51.464;6.968;2024-02-15T13:02:55;19.90;99.90
22288;DHT22;11312;51.464;6.968;2024-02-15T13:05:22;20.50;1.00
22288;DHT22;11312;51.464;6.968;2024-02-15T13:07:49;19.30;1.00
22288;DHT22;11312;51.464;6.968;2024-02-15T13:10:15;18.70;1.00
22288;DHT22;11312;51.464;6.968;2024-02-15T13:12:42;18.30;1.00
22288;DHT22;11312;51.464;6.968;2024-02-15T13:15:09;18.60;1.00
22288;DHT22;11312;51.464;6.968;2024-02-15T13:17:43;18.80;1.00
22288;DHT22;11312;51.464;6.968;2024-02-15T13:20:10;18.50;1.00
22288;DHT22;11312;51.464;6.968;2024-02-15T13:22:42;18.60;1.00
22288;DHT22;11312;51.464;6.968;2024-02-15T13:25:13;18.20;99.90
22288;DHT22;11312;51.464;6.968;2024-02-15T13:27:42;17.80;1.00
22288;DHT22;11312;51.464;6.968;2024-02-15T13:30:09;17.70;21.50
22288;DHT22;11312;51.464;6.968;2024-02-15T13:32:37;17.80;99.90
22288;DHT22;11312;51.464;6.968;2024-02-15T13:35:09;18.00;99.90
22288;DHT22;11312;51.464;6.968;2024-02-15T13:37:46;17.80;99.90
22288;DHT22;11312;51.464;6.968;2024-02-15T13:40:13;18.20;99.90
22288;DHT22;11312;51.464;6.968;2024-02-15T13:42:46;18.00;99.90
22288;DHT22;11312;51.464;6.968;2024-02-15T13:45:19;17.90;1.00
22288;DHT22;11312;51.464;6.968;2024-02-15T13:47:45;18.10;99.90
22288;DHT22;11312;51.464;6.968;2024-02-15T13:50:12;17.90;1.00
22288;DHT22;11312;51.464;6.968;2024-02-15T13:52:41;18.20;99.90
22288;DHT22;11312;51.464;6.968;2024-02-15T13:55:12;17.60;99.90
22288;DHT22;11312;51.464;6.968;2024-02-15T13:57:43;17.50;54.40
22288;DHT22;11312;51.464;6.968;2024-02-15T14:00:10;17.20;1.00
22288;DHT22;11312;51.464;6.968;2024-02-15T14:02:47;17.20;1.00
22288;DHT22;11312;51.464;6.968;2024-02-15T14:05:13;17.20;99.90
22288;DHT22;11312;51.464;6.968;2024-02-15T14:07:39;16.90;99.90
22288;DHT22;11312;51.464;6.968;2024-02-15T14:10:06;16.90;1.00
22288;DHT22;11312;51.464;6.968;2024-02-15T14:12:32;16.90;99.90
22288;DHT22;11312;51.464;6.968;2024-02-15T14:14:58;17.70;1.00
22288;DHT22;11312;51.464;6.968;2024-02-15T14:17:23;18.20;1.00
22288;DHT22;11312;51.464;6.968;2024-02-15T14:19:49;17.80;1.00
22288;DHT22;11312;51.464;6.968;2024-02-15T14:22:15;18.30;99.90
22288;DHT22;11312;51.464;6.968;2024-02-15T14:24:44;18.80;64.10
22288;DHT22;11312;51.464;6.968;2024-02-15T14:27:11;18.20;1.00
22288;DHT22;11312;51.464;6.968;2024-02-15T14:29:37;18.60;1.00
22288;DHT22;11312;51.464;6.968;2024-02-15T14:32:11;18.70;1.00
22288;DHT22;11312;51.464;6.968;2024-02-15T14:34:55;18.60;1.00
22288;DHT22;11312;51.464;6.968;2024-02-15T14:37:22;17.80;99.90
22288;DHT22;11312;51.464;6.968;2024-02-15T14:39:47;18.10;99.90
22288;DHT22;11312;51.464;6.968;2024-02-15T14:42:13;18.20;99.90
22288;DHT22;11312;51.464;6.968;2024-02-15T14:44:39;18.50;99.90
22288;DHT22;11312;51.464;6.968;2024-02-15T14:47:05;18.50;99.90
22288;DHT22;11312;51.464;6.968;2024-02-15T14:49:31;18.50;1.00
22288;DHT22;11312;51.464;6.968;2024-02-15T14:51:56;18.40;1.00
22288;DHT22;11312;51.464;6.968;2024-02-15T14:54:22;18.10;1.00
22288;DHT22;11312;51.464;6.968;2024-02-15T14:56:48;18.20;1.00
22288;DHT22;11312;51.464;6.968;2024-02-15T14:59:13;18.30;1.00
22288;DHT22;11312;51.464;6.968;2024-02-15T15:01:40;18.80;1.00
22288;DHT22;11312;51.464;6.968;2024-02-15T15:04:06;18.00;1.00
22288;DHT22;11312;51.464;6.968;2024-02-15T15:06:33;17.50;99.90
22288;DHT22;11312;51.464;6.968;2024-02-15T15:09:18;17.40;1.00
22288;DHT22;11312;51.464;6.968;2024-02-15T15:12:02;17.20;1.00
22288;DHT22;11312;51.464;6.968;2024-02-15T15:14:46;17.10;1.00
22288;DHT22;11312;51.464;6.968;2024-02-15T15:17:13;17.10;99.90
22288;DHT22;11312;51.464;6.968;2024-02-15T15:19:40;17.10;99.90
22288;DHT22;11312;51.464;6.968;2024-02-15T15:22:05;17.00;1.00
22288;DHT22;11312;51.464;6.968;2024-02-15T15:24:33;16.90;99.90
22288;DHT22;11312;51.464;6.968;2024-02-15T15:26:59;16.90;1.00
22288;DHT22;11312;51.464;6.968;2024-02-15T15:29:25;16.80;1.00
22288;DHT22;11312;51.464;6.968;2024-02-15T15:31:51;16.60;1.00
22288;DHT22;11312;51.464;6.968;2024-02-15T15:34:17;16.60;1.00
22288;DHT22;11312;51.464;6.968;2024-02-15T15:36:45;16.50;1.00
22288;DHT22;11312;51.464;6.968;2024-02-15T15:39:13;16.40;1.00
22288;DHT22;11312;51.464;6.968;2024-02-15T15:41:39;16.30;99.90
22288;DHT22;11312;51.464;6.968;2024-02-15T15:44:05;16.30;1.00
22288;DHT22;11312;51.464;6.968;2024-02-15T15:46:31;16.20;1.00
22288;DHT22;11312;51.464;6.968;2024-02-15T15:48:59;16.20;1.00
22288;DHT22;11312;51.464;6.968;2024-02-15T15:51:25;16.10;1.00
22288;DHT22;11312;51.464;6.968;2024-02-15T15:53:52;16.10;1.00
22288;DHT22;11312;51.464;6.968;2024-02-15T15:56:20;16.10;7.40
22288;DHT22;11312;51.464;6.968;2024-02-15T15:58:47;16.10;82.40